This is the latest recevied weather packets stored in our database for station/object KE8CZD. If no packets are shown the sender has not sent any weather packets the latest 1 day(s).
| Time | Temp. | Humidity | Pressure | Rain* | Wind** | Luminosity | Snow |
|---|---|---|---|---|---|---|---|
| 1777990004 | 15° C | 54% | 1001.9 hPa | 0 mm | 0 m/s | - | - |
| 1777989644 | 15° C | 55% | 1001.9 hPa | 0 mm | 0 m/s | - | - |
| 1777989284 | 15° C | 52% | 1001.7 hPa | 0 mm | 0.45 m/s, 278° | - | - |
| 1777988924 | 15° C | 51% | 1001.4 hPa | 0 mm | 0.45 m/s, 280° | - | - |
| 1777988564 | 15° C | 51% | 1001.1 hPa | 0 mm | 0.89 m/s, 274° | - | - |
| 1777988204 | 15° C | 51% | 1000.7 hPa | 0 mm | 0.45 m/s, 287° | - | - |
| 1777987844 | 14.44° C | 52% | 1000.4 hPa | 0 mm | 0 m/s | - | - |
| 1777987484 | 15° C | 51% | 1000.9 hPa | 0 mm | 0.45 m/s, 264° | - | - |
| 1777987124 | 15° C | 51% | 1000.7 hPa | 0 mm | 0.89 m/s, 277° | - | - |
| 1777986764 | 15° C | 50% | 1000.6 hPa | 0 mm | 0.45 m/s, 262° | - | - |
| 1777986404 | 15° C | 50% | 1000 hPa | 0 mm | 0.45 m/s, 308° | - | - |
| 1777986044 | 15° C | 51% | 1000.1 hPa | 0 mm | 0.45 m/s, 282° | - | - |
| 1777985684 | 14.44° C | 52% | 1000.2 hPa | 0 mm | 0.45 m/s, 288° | - | - |
| 1777985325 | 14.44° C | 53% | 1000.2 hPa | 0 mm | 0.45 m/s, 287° | - | - |
| 1777984964 | 14.44° C | 53% | 1000 hPa | 0 mm | 0 m/s | - | - |
| 1777984604 | 14.44° C | 54% | 1000.1 hPa | 0 mm | 0.45 m/s, 271° | - | - |
| 1777984244 | 14.44° C | 57% | 1000.1 hPa | 0 mm | 0.45 m/s, 269° | - | - |
| 1777983884 | 14.44° C | 61% | 1000.1 hPa | 0 mm | 0 m/s | - | - |
| 1777983524 | 13.89° C | 62% | 1000.1 hPa | 0 mm | 0.45 m/s, 268° | - | - |
| 1777983164 | 13.89° C | 65% | 1000.2 hPa | 0 mm | 0 m/s | - | - |
| 1777982804 | 13.89° C | 67% | 1000.2 hPa | 0 mm | 0 m/s | - | - |
| 1777982444 | 13.33° C | 70% | 1000 hPa | 0 mm | 0 m/s | - | - |
| 1777982086 | 13.33° C | 74% | 1000.1 hPa | 0 mm | 0 m/s | - | - |
| 1777981724 | 12.78° C | 75% | 1000.1 hPa | 0 mm | 0 m/s | - | - |
| 1777981365 | 13.33° C | 77% | 999.9 hPa | 0 mm | 0 m/s | - | - |
* Rain latest hour (hover to see other rain measurements)
** Current wind speed in m/s (hover to see current wind gust speed)